createdAt,value
2018-11-03T00:03:19.317Z,101340.42
2018-11-03T00:08:22.836Z,101353.91
2018-11-03T00:13:26.125Z,101353.72
2018-11-03T00:18:29.432Z,101362.64
2018-11-03T00:23:32.721Z,101354.12
2018-11-03T00:28:36.013Z,101359.48
2018-11-03T00:33:39.304Z,101352.14
2018-11-03T00:38:42.596Z,101362.44
2018-11-03T00:43:45.916Z,101354.91
2018-11-03T00:48:49.199Z,101352.53
2018-11-03T00:53:52.502Z,101345.58
2018-11-03T00:58:55.947Z,101337.86
2018-11-03T01:03:59.233Z,101343.00
2018-11-03T01:09:02.514Z,101334.10
2018-11-03T01:14:05.802Z,101328.75
2018-11-03T01:19:09.090Z,101336.67
2018-11-03T01:24:12.364Z,101328.34
2018-11-03T01:29:15.669Z,101335.88
2018-11-03T01:34:18.961Z,101335.88
2018-11-03T01:39:22.322Z,101338.84
2018-11-03T01:44:25.690Z,101338.64
2018-11-03T01:49:28.981Z,101341.82
2018-11-03T01:54:32.265Z,101347.98
2018-11-03T01:59:35.545Z,101340.84
2018-11-03T02:04:38.875Z,101342.80
2018-11-03T02:09:42.165Z,101347.59
2018-11-03T02:14:45.488Z,101350.96
2018-11-03T02:19:48.757Z,101360.47
2018-11-03T02:24:52.070Z,101362.64
2018-11-03T02:29:55.403Z,101364.23
2018-11-03T02:34:58.706Z,101363.63
2018-11-03T02:40:02.042Z,101373.15
2018-11-03T02:45:07.071Z,101368.59
2018-11-03T02:50:12.361Z,101362.64
2018-11-03T02:55:15.656Z,101374.34
2018-11-03T03:00:18.937Z,101369.37
2018-11-03T03:05:22.230Z,101377.50
2018-11-03T03:10:25.513Z,101372.37
2018-11-03T03:15:28.825Z,101372.94
2018-11-03T03:20:32.129Z,101385.45
2018-11-03T03:25:35.418Z,101391.59
2018-11-03T03:30:38.813Z,101387.43
2018-11-03T03:35:42.097Z,101396.34
2018-11-03T03:40:45.377Z,101398.12
2018-11-03T03:45:48.677Z,101409.81
2018-11-03T03:50:52.051Z,101416.75
2018-11-03T03:55:55.349Z,101423.90
2018-11-03T04:00:58.818Z,101422.92
2018-11-03T04:06:02.104Z,101434.98
2018-11-03T04:11:05.658Z,101430.24
2018-11-03T04:16:08.948Z,101425.67
2018-11-03T04:21:16.423Z,101421.92
2018-11-03T04:26:19.759Z,101421.09
2018-11-03T04:31:23.066Z,101419.33
2018-11-03T04:36:26.421Z,101420.51
2018-11-03T04:41:29.726Z,101430.64
2018-11-03T04:46:33.052Z,101435.18
2018-11-03T04:51:36.400Z,101436.98
2018-11-03T04:56:39.718Z,101441.53
2018-11-03T05:01:43.061Z,101449.06
2018-11-03T05:06:46.416Z,101458.39
2018-11-03T05:11:49.725Z,101453.20
2018-11-03T05:16:53.045Z,101459.78
2018-11-03T05:21:56.533Z,101465.51
2018-11-03T05:26:59.866Z,101447.64
2018-11-03T05:32:03.185Z,101453.81
2018-11-03T05:37:06.768Z,101455.18
2018-11-03T05:42:10.069Z,101454.80
2018-11-03T05:47:13.386Z,101469.47
2018-11-03T05:52:16.715Z,101476.58
2018-11-03T05:57:20.051Z,101479.98
2018-11-03T06:02:23.369Z,101477.38
2018-11-03T06:07:26.710Z,101478.19
2018-11-03T06:12:30.019Z,101483.52
2018-11-03T06:17:34.172Z,101486.72
2018-11-03T06:22:37.594Z,101498.61
2018-11-03T06:27:40.947Z,101499.80
2018-11-03T06:32:44.253Z,101500.59
2018-11-03T06:37:47.577Z,101503.75
2018-11-03T06:42:50.890Z,101508.70
2018-11-03T06:47:54.200Z,101504.34
2018-11-03T06:52:57.645Z,101510.30
2018-11-03T06:58:00.990Z,101514.26
2018-11-03T07:03:04.481Z,101520.58
2018-11-03T07:08:07.982Z,101511.66
2018-11-03T07:13:11.385Z,101518.42
2018-11-03T07:18:14.639Z,101515.05
2018-11-03T07:23:17.970Z,101503.72
2018-11-03T07:28:21.333Z,101517.23
2018-11-03T07:33:24.633Z,101522.19
2018-11-03T07:38:28.079Z,101530.11
2018-11-03T07:43:31.408Z,101531.91
2018-11-03T07:48:34.820Z,101536.84
2018-11-03T07:53:38.175Z,101538.81
2018-11-03T07:58:41.573Z,101526.53
2018-11-03T08:03:44.903Z,101534.47
2018-11-03T08:08:48.313Z,101532.31
2018-11-03T08:13:51.608Z,101538.89
2018-11-03T08:18:54.906Z,101539.48
2018-11-03T08:23:58.584Z,101540.28
2018-11-03T08:29:01.911Z,101541.46
2018-11-03T08:34:05.520Z,101545.45
2018-11-03T08:39:09.870Z,101544.71
2018-11-03T08:44:13.148Z,101550.84
2018-11-03T08:49:16.432Z,101545.86
2018-11-03T08:54:19.725Z,101532.91
2018-11-03T08:59:23.254Z,101525.59
2018-11-03T09:04:26.562Z,101523.76
2018-11-03T09:09:29.858Z,101518.05
2018-11-03T09:14:33.226Z,101524.81
2018-11-03T09:19:36.478Z,101526.61
2018-11-03T09:24:39.766Z,101521.03
2018-11-03T09:29:43.053Z,101523.62
2018-11-03T09:34:46.493Z,101531.58
2018-11-03T09:39:49.750Z,101532.59
2018-11-03T09:44:53.040Z,101521.27
2018-11-03T09:49:56.353Z,101531.64
2018-11-03T09:54:59.658Z,101531.23
2018-11-03T10:00:03.325Z,101521.52
2018-11-03T10:05:07.107Z,101526.84
2018-11-03T10:10:13.253Z,101522.50
2018-11-03T10:15:18.006Z,101520.33
2018-11-03T10:20:21.307Z,101510.84
2018-11-03T10:25:24.594Z,101507.67
2018-11-03T10:30:27.905Z,101503.92
2018-11-03T10:35:31.220Z,101496.98
2018-11-03T10:40:34.505Z,101506.09
2018-11-03T10:45:37.789Z,101512.65
2018-11-03T10:50:41.082Z,101512.86
2018-11-03T10:55:44.390Z,101519.80
2018-11-03T11:00:53.053Z,101505.09
2018-11-03T11:06:01.617Z,101508.47
2018-11-03T11:11:10.259Z,101492.80
2018-11-03T11:16:13.631Z,101496.98
2018-11-03T11:21:16.877Z,101487.63
2018-11-03T11:26:20.150Z,101480.52
2018-11-03T11:31:23.481Z,101477.72
2018-11-03T11:36:26.731Z,101477.31
2018-11-03T11:41:30.021Z,101482.27
2018-11-03T11:46:33.404Z,101485.25
2018-11-03T11:51:36.666Z,101469.39
2018-11-03T11:56:40.001Z,101467.58
2018-11-03T12:01:43.263Z,101459.45
2018-11-03T12:06:46.547Z,101453.09
2018-11-03T12:11:49.840Z,101453.31
2018-11-03T12:16:53.140Z,101451.52
2018-11-03T12:50:07.597Z,101436.83
2018-11-03T12:55:11.266Z,101417.77
2018-11-03T13:00:15.674Z,101413.80
2018-11-03T13:05:19.069Z,101412.19
2018-11-03T13:10:22.382Z,101417.77
2018-11-03T13:15:25.669Z,101412.78
2018-11-03T13:20:28.973Z,101414.80
2018-11-03T13:25:32.258Z,101419.95
2018-11-03T13:30:35.539Z,101410.63
2018-11-03T13:35:38.830Z,101416.38
2018-11-03T13:40:42.290Z,101404.86
2018-11-03T13:45:45.598Z,101409.03
2018-11-03T13:50:49.781Z,101397.74
2018-11-03T13:55:53.075Z,101390.80
2018-11-03T14:00:56.434Z,101395.77
2018-11-03T14:05:59.745Z,101381.27
2018-11-03T14:11:03.210Z,101379.48
2018-11-03T14:16:06.470Z,101378.09
2018-11-03T14:21:09.773Z,101388.60
2018-11-03T14:26:13.330Z,101390.59
2018-11-03T14:31:16.730Z,101389.81
2018-11-03T14:36:20.197Z,101382.27
2018-11-03T14:41:23.721Z,101380.28
2018-11-03T14:46:27.844Z,101375.13
2018-11-03T14:51:31.154Z,101374.73
2018-11-03T14:56:35.014Z,101373.55
2018-11-03T15:01:38.310Z,101375.16
2018-11-03T15:06:42.266Z,101371.18
2018-11-03T15:11:45.554Z,101368.39
2018-11-03T15:16:48.940Z,101359.48
2018-11-03T15:21:53.169Z,101364.44
2018-11-03T15:26:56.458Z,101367.81
2018-11-03T15:31:59.954Z,101371.59
2018-11-03T15:37:03.230Z,101365.05
2018-11-03T15:42:06.522Z,101358.48
2018-11-03T15:47:09.889Z,101356.50
2018-11-03T15:52:13.518Z,101353.52
2018-11-03T15:57:16.845Z,101353.93
2018-11-03T16:02:20.150Z,101357.10
2018-11-03T16:07:23.447Z,101355.48
2018-11-03T16:12:26.854Z,101351.77
2018-11-03T16:17:30.412Z,101356.91
2018-11-03T16:22:33.872Z,101355.71
2018-11-03T16:27:37.559Z,101346.19
2018-11-03T16:32:41.103Z,101354.34
2018-11-03T16:37:44.463Z,101340.81
2018-11-03T16:42:47.777Z,101342.60
2018-11-03T16:47:51.056Z,101338.81
2018-11-03T16:52:54.340Z,101342.81
2018-11-03T16:57:57.617Z,101346.20
2018-11-03T17:03:00.904Z,101340.25
2018-11-03T17:08:04.342Z,101333.30
2018-11-03T17:13:07.655Z,101327.55
2018-11-03T17:18:10.933Z,101320.39
2018-11-03T17:23:14.228Z,101314.23
2018-11-03T17:28:17.524Z,101308.48
2018-11-03T17:33:20.810Z,101300.55
2018-11-03T17:38:24.085Z,101307.70
2018-11-03T17:43:27.365Z,101304.72
2018-11-03T17:48:30.761Z,101302.93
2018-11-03T17:53:34.053Z,101299.19
2018-11-03T17:58:37.337Z,101294.03
2018-11-03T18:03:40.621Z,101296.80
2018-11-03T18:08:43.917Z,101295.39
2018-11-03T18:13:47.195Z,101293.81
2018-11-03T18:18:51.242Z,101296.59
2018-11-03T18:23:54.591Z,101297.58
2018-11-03T18:28:57.942Z,101297.36
2018-11-03T18:34:01.361Z,101294.98
2018-11-03T18:39:05.995Z,101293.39
2018-11-03T18:44:09.658Z,101291.63
2018-11-03T18:49:12.947Z,101292.82
2018-11-03T18:54:16.828Z,101283.30
2018-11-03T18:59:20.117Z,101286.27
2018-11-03T19:04:23.406Z,101282.90
2018-11-03T19:09:26.778Z,101270.59
2018-11-03T19:14:30.000Z,101263.45
2018-11-03T19:19:33.291Z,101266.43
2018-11-03T19:24:36.573Z,101267.42
2018-11-03T19:29:39.977Z,101257.50
2018-11-03T19:34:43.886Z,101247.81
2018-11-03T19:39:47.165Z,101239.84
2018-11-03T19:44:50.506Z,101237.47
2018-11-03T19:49:53.830Z,101237.27
2018-11-03T19:54:57.237Z,101240.08
2018-11-03T20:00:00.515Z,101234.31
2018-11-03T20:05:04.031Z,101232.31
2018-11-03T20:10:07.493Z,101233.10
2018-11-03T20:15:12.001Z,101234.69
2018-11-03T20:20:15.517Z,101228.14
2018-11-03T20:25:18.790Z,101226.36
2018-11-03T20:30:22.073Z,101223.78
2018-11-03T20:35:25.372Z,101213.69
2018-11-03T20:40:28.645Z,101215.08
2018-11-03T20:45:31.924Z,101198.02
2018-11-03T20:50:35.206Z,101195.44
2018-11-03T20:55:38.487Z,101195.07
2018-11-03T21:00:41.778Z,101192.63
2018-11-03T21:05:45.079Z,101180.73
2018-11-03T21:10:48.387Z,101171.41
2018-11-03T21:15:51.682Z,101168.80
2018-11-03T21:20:55.255Z,101160.45
2018-11-03T21:25:58.571Z,101156.09
2018-11-03T21:31:01.850Z,101149.31
2018-11-03T21:36:05.142Z,101141.17
2018-11-03T21:41:08.594Z,101127.09
2018-11-03T21:46:11.977Z,101122.88
2018-11-03T21:51:15.284Z,101119.06
2018-11-03T21:56:18.818Z,101114.98
2018-11-03T22:01:22.306Z,101115.22
2018-11-03T22:06:25.642Z,101111.45
2018-11-03T22:11:29.791Z,101101.37
2018-11-03T22:16:33.169Z,101094.59
2018-11-03T22:21:36.539Z,101092.60
2018-11-03T22:26:39.832Z,101092.61
2018-11-03T22:31:43.294Z,101084.87
2018-11-03T22:36:46.585Z,101076.38
2018-11-03T22:41:49.884Z,101066.07
2018-11-03T22:46:54.197Z,101059.12
2018-11-03T22:51:57.545Z,101046.23
2018-11-03T22:57:00.830Z,101035.95
2018-11-03T23:02:04.203Z,101037.14
2018-11-03T23:07:07.526Z,101031.59
2018-11-03T23:12:10.870Z,101029.61
2018-11-03T23:17:14.191Z,101010.37
2018-11-03T23:22:17.582Z,101004.82
2018-11-03T23:27:20.863Z,100992.13
2018-11-03T23:32:24.578Z,100993.91
2018-11-03T23:37:28.190Z,100978.28
2018-11-03T23:42:31.950Z,100966.75
2018-11-03T23:47:35.568Z,100960.83
2018-11-03T23:52:43.275Z,100955.87
2018-11-03T23:57:46.715Z,100968.37
